createdAt,value
2022-08-07T00:01:12.552Z,21.36
2022-08-07T00:03:51.701Z,21.33
2022-08-07T00:06:18.580Z,21.44
2022-08-07T00:08:56.104Z,21.51
2022-08-07T00:11:30.023Z,21.30
2022-08-07T00:13:59.829Z,21.36
2022-08-07T00:16:28.065Z,21.40
2022-08-07T00:18:54.954Z,21.32
2022-08-07T00:21:57.101Z,21.30
2022-08-07T00:24:09.111Z,21.25
2022-08-07T00:26:58.609Z,20.61
2022-08-07T00:29:26.062Z,21.19
2022-08-07T00:31:59.775Z,20.69
2022-08-07T00:34:27.508Z,20.46
2022-08-07T00:36:56.638Z,21.06
2022-08-07T00:39:23.371Z,21.03
2022-08-07T00:42:01.728Z,20.91
2022-08-07T00:44:33.339Z,20.69
2022-08-07T00:47:01.553Z,20.88
2022-08-07T00:50:19.310Z,20.94
2022-08-07T00:52:17.709Z,20.93
2022-08-07T00:54:53.651Z,20.81
2022-08-07T00:57:22.600Z,20.44
2022-08-07T00:59:49.288Z,20.77
2022-08-07T01:02:28.326Z,20.86
2022-08-07T01:04:58.450Z,20.77
2022-08-07T01:07:27.861Z,20.60
2022-08-07T01:10:05.839Z,20.50
2022-08-07T01:12:38.769Z,20.46
2022-08-07T01:15:06.210Z,19.90
2022-08-07T01:17:33.356Z,20.27
2022-08-07T01:20:16.688Z,20.48
2022-08-07T01:22:46.978Z,20.12
2022-08-07T01:25:54.184Z,20.34
2022-08-07T01:28:15.409Z,20.20
2022-08-07T01:30:42.583Z,20.39
2022-08-07T01:33:09.756Z,19.93
2022-08-07T01:35:52.883Z,20.40
2022-08-07T01:38:24.946Z,20.35
2022-08-07T01:40:59.615Z,20.30
2022-08-07T01:43:27.274Z,20.39
2022-08-07T01:46:05.132Z,20.16
2022-08-07T01:48:32.725Z,19.91
2022-08-07T01:51:24.283Z,20.27
2022-08-07T01:54:08.839Z,20.35
2022-08-07T01:56:49.394Z,19.97
2022-08-07T01:59:22.909Z,20.31
2022-08-07T02:02:02.715Z,20.17
2022-08-07T02:04:39.722Z,20.24
2022-08-07T02:07:35.693Z,20.19
2022-08-07T02:10:05.601Z,19.85
2022-08-07T02:12:36.204Z,20.21
2022-08-07T02:15:06.926Z,19.76
2022-08-07T02:17:35.250Z,19.94
2022-08-07T02:20:10.027Z,19.98
2022-08-07T02:22:46.078Z,19.52
2022-08-07T02:25:17.291Z,19.94
2022-08-07T02:27:51.194Z,19.88
2022-08-07T02:30:19.379Z,19.54
2022-08-07T02:33:00.542Z,20.01
2022-08-07T02:36:30.296Z,20.07
2022-08-07T02:38:31.597Z,19.85
2022-08-07T02:40:59.642Z,20.05
2022-08-07T02:43:28.248Z,20.01
2022-08-07T02:46:01.634Z,20.03
2022-08-07T02:48:30.501Z,19.86
2022-08-07T02:50:59.580Z,20.02
2022-08-07T02:53:34.015Z,19.99
2022-08-07T02:56:17.493Z,20.03
2022-08-07T02:58:50.987Z,20.03
2022-08-07T03:01:36.123Z,19.96
2022-08-07T03:04:07.040Z,20.03
2022-08-07T03:06:40.200Z,19.91
2022-08-07T03:09:11.289Z,19.96
2022-08-07T03:11:51.824Z,19.99
2022-08-07T03:14:25.396Z,20.01
2022-08-07T03:16:52.572Z,19.86
2022-08-07T03:19:20.203Z,19.97
2022-08-07T03:21:50.838Z,19.81
2022-08-07T03:24:27.005Z,19.84
2022-08-07T03:26:59.727Z,19.98
2022-08-07T03:29:36.758Z,20.06
2022-08-07T03:32:08.415Z,19.77
2022-08-07T03:34:47.199Z,20.16
2022-08-07T03:37:32.746Z,20.18
2022-08-07T03:40:15.278Z,20.12
2022-08-07T03:42:43.758Z,20.26
2022-08-07T03:45:12.033Z,20.15
2022-08-07T03:47:57.558Z,19.09
2022-08-07T03:50:25.591Z,20.20
2022-08-07T03:52:59.207Z,20.23
2022-08-07T03:55:53.361Z,20.40
2022-08-07T03:58:34.995Z,20.50
2022-08-07T04:01:04.017Z,20.60
2022-08-07T04:03:49.833Z,20.56
2022-08-07T04:06:38.044Z,20.36
2022-08-07T04:09:06.461Z,20.81
2022-08-07T04:12:25.368Z,20.63
2022-08-07T04:14:37.677Z,20.60
2022-08-07T04:17:20.190Z,20.94
2022-08-07T04:19:52.501Z,21.20
2022-08-07T04:22:28.529Z,21.33
2022-08-07T04:25:01.118Z,21.58
2022-08-07T04:27:28.692Z,21.66
2022-08-07T04:30:04.468Z,21.18
2022-08-07T04:32:37.511Z,21.92
2022-08-07T04:35:07.125Z,22.43
2022-08-07T04:37:52.882Z,22.66
2022-08-07T04:40:29.585Z,22.84
2022-08-07T04:43:01.720Z,22.71
2022-08-07T04:45:57.590Z,22.88
2022-08-07T04:49:01.495Z,23.35
2022-08-07T04:51:37.525Z,23.53
2022-08-07T04:54:30.077Z,23.61
2022-08-07T04:58:11.507Z,23.75
2022-08-07T05:00:30.595Z,23.91
2022-08-07T05:04:00.211Z,23.96
2022-08-07T05:06:21.530Z,24.13
2022-08-07T05:09:02.180Z,24.32
2022-08-07T05:11:57.007Z,24.40
2022-08-07T05:14:52.111Z,24.47
2022-08-07T05:17:52.869Z,24.45
2022-08-07T05:20:11.769Z,24.15
2022-08-07T05:22:41.505Z,24.54
2022-08-07T05:25:11.834Z,24.41
2022-08-07T05:28:16.768Z,24.43
2022-08-07T05:30:42.515Z,24.55
2022-08-07T05:33:09.868Z,24.32
2022-08-07T05:35:41.724Z,24.66
2022-08-07T05:38:10.784Z,24.26
2022-08-07T05:40:50.276Z,24.74
2022-08-07T05:43:19.640Z,24.63
2022-08-07T05:46:06.784Z,24.88
2022-08-07T05:48:34.031Z,24.89
2022-08-07T05:51:03.405Z,25.13
2022-08-07T05:54:12.382Z,24.60
2022-08-07T05:56:19.663Z,24.58
2022-08-07T05:58:52.503Z,24.55
2022-08-07T06:01:20.943Z,24.94
2022-08-07T06:03:51.599Z,24.97
2022-08-07T06:06:29.783Z,24.60
2022-08-07T06:08:59.483Z,25.04
2022-08-07T06:11:27.198Z,24.67
2022-08-07T06:14:11.731Z,25.35
2022-08-07T06:16:44.178Z,25.41
2022-08-07T06:19:47.783Z,25.02
2022-08-07T06:22:15.117Z,25.34
2022-08-07T06:24:56.804Z,25.37
2022-08-07T06:27:59.579Z,25.31
2022-08-07T06:30:32.300Z,25.42
2022-08-07T06:32:59.667Z,25.34
2022-08-07T06:35:39.209Z,25.29
2022-08-07T06:38:20.604Z,25.25
2022-08-07T06:40:53.240Z,25.31
2022-08-07T06:43:23.438Z,25.16
2022-08-07T06:45:50.950Z,25.29
2022-08-07T06:48:24.872Z,25.03
2022-08-07T06:50:54.941Z,24.76
2022-08-07T06:55:28.140Z,25.58
2022-08-07T06:56:15.225Z,25.76
2022-08-07T07:00:14.774Z,25.89
2022-08-07T07:01:44.078Z,26.21
2022-08-07T07:04:31.027Z,26.52
2022-08-07T07:07:01.975Z,26.42
2022-08-07T07:09:31.675Z,26.65
2022-08-07T07:12:15.679Z,26.73
2022-08-07T07:15:03.391Z,26.76
2022-08-07T07:17:50.639Z,26.42
2022-08-07T07:20:24.024Z,26.32
2022-08-07T07:24:05.929Z,26.54
2022-08-07T07:26:32.235Z,26.83
2022-08-07T07:29:56.317Z,26.63
2022-08-07T07:31:44.479Z,26.56
2022-08-07T07:34:15.457Z,26.76
2022-08-07T07:36:47.936Z,26.52
2022-08-07T07:39:22.767Z,26.75
2022-08-07T07:42:08.913Z,26.78
2022-08-07T07:44:45.715Z,27.12
2022-08-07T07:47:22.949Z,27.41
2022-08-07T07:50:33.398Z,27.60
2022-08-07T07:52:43.132Z,27.88
2022-08-07T07:55:10.904Z,28.17
2022-08-07T07:57:51.550Z,28.04
2022-08-07T08:00:31.321Z,27.87
2022-08-07T08:03:16.968Z,27.32
2022-08-07T08:06:01.477Z,27.58
2022-08-07T08:08:35.743Z,27.49
2022-08-07T08:11:08.809Z,27.88
2022-08-07T08:13:54.754Z,27.87
2022-08-07T08:16:29.829Z,27.78
2022-08-07T08:18:58.386Z,28.25
2022-08-07T08:22:00.686Z,28.83
2022-08-07T08:25:04.496Z,28.41
2022-08-07T08:27:44.126Z,28.29
2022-08-07T08:30:25.944Z,28.35
2022-08-07T08:33:00.111Z,28.04
2022-08-07T08:35:39.142Z,28.47
2022-08-07T08:38:17.019Z,28.63
2022-08-07T08:40:57.109Z,28.45
2022-08-07T08:43:42.601Z,28.52
2022-08-07T08:46:54.455Z,28.18
2022-08-07T08:49:46.462Z,28.64
2022-08-07T08:52:40.805Z,28.76
2022-08-07T08:55:55.238Z,28.94
2022-08-07T08:58:36.411Z,29.00
2022-08-07T09:01:14.842Z,29.30
2022-08-07T09:04:25.874Z,29.68
2022-08-07T09:07:06.190Z,29.34
2022-08-07T09:09:57.392Z,30.05
2022-08-07T09:12:42.107Z,30.34
2022-08-07T09:16:23.873Z,29.89
2022-08-07T09:19:07.134Z,30.40
2022-08-07T09:24:27.284Z,30.86
2022-08-07T09:25:53.510Z,30.47
2022-08-07T09:30:02.042Z,30.45
2022-08-07T09:32:02.302Z,30.40
2022-08-07T09:34:37.753Z,30.20
2022-08-07T09:37:48.547Z,30.09
2022-08-07T09:40:35.615Z,30.95
2022-08-07T09:43:40.211Z,30.91
2022-08-07T09:47:50.260Z,31.18
2022-08-07T09:50:17.381Z,31.42
2022-08-07T09:53:03.117Z,31.29
2022-08-07T09:56:04.487Z,31.74
2022-08-07T09:58:38.450Z,31.88
2022-08-07T10:01:51.820Z,32.41
2022-08-07T10:04:52.997Z,33.19
2022-08-07T10:07:52.255Z,33.27
2022-08-07T10:11:59.944Z,32.86
2022-08-07T10:14:00.303Z,32.18
2022-08-07T10:16:50.054Z,31.70
2022-08-07T10:19:38.602Z,31.55
2022-08-07T10:22:18.393Z,32.39
2022-08-07T10:25:08.777Z,31.71
2022-08-07T10:27:53.549Z,32.07
2022-08-07T10:31:00.032Z,31.92
2022-08-07T10:34:15.465Z,32.10
2022-08-07T10:36:43.465Z,31.66
2022-08-07T10:40:03.283Z,31.49
2022-08-07T10:42:57.497Z,31.31
2022-08-07T10:45:45.404Z,30.25
2022-08-07T10:48:51.187Z,30.09
2022-08-07T10:51:57.675Z,29.55
2022-08-07T10:54:26.911Z,29.16
2022-08-07T10:57:08.763Z,28.90
2022-08-07T10:59:58.027Z,29.11
2022-08-07T11:02:49.450Z,29.02
2022-08-07T11:05:35.781Z,28.74
2022-08-07T11:08:36.643Z,28.57
2022-08-07T11:11:21.354Z,28.22
2022-08-07T11:14:45.419Z,28.20
2022-08-07T11:17:02.005Z,27.94
2022-08-07T11:19:50.238Z,27.84
2022-08-07T11:22:32.288Z,28.00
2022-08-07T11:25:14.841Z,28.22
2022-08-07T11:28:04.414Z,28.72
2022-08-07T11:31:13.462Z,29.43
2022-08-07T11:33:58.663Z,29.53
2022-08-07T11:36:36.284Z,30.32
2022-08-07T11:39:19.834Z,30.61
2022-08-07T11:42:03.116Z,30.10
2022-08-07T11:45:20.488Z,30.72
2022-08-07T11:48:13.929Z,31.10
2022-08-07T11:51:40.649Z,30.70
2022-08-07T11:54:56.363Z,30.35
2022-08-07T11:57:59.665Z,29.82
2022-08-07T12:00:38.687Z,30.66
2022-08-07T12:03:44.448Z,30.53
2022-08-07T12:06:37.758Z,31.04
2022-08-07T12:09:23.432Z,31.30
2022-08-07T12:12:11.754Z,31.32
2022-08-07T12:15:00.206Z,30.62
2022-08-07T12:17:59.811Z,30.87
2022-08-07T12:20:49.207Z,30.84
2022-08-07T12:24:06.956Z,31.20
2022-08-07T12:26:51.141Z,31.18
2022-08-07T12:29:38.134Z,31.18
2022-08-07T12:32:15.594Z,31.38
2022-08-07T12:34:49.353Z,31.87
2022-08-07T12:37:23.518Z,31.87
2022-08-07T12:39:58.188Z,32.62
2022-08-07T12:42:27.652Z,31.68
2022-08-07T12:44:58.053Z,31.46
2022-08-07T12:47:53.637Z,31.83
2022-08-07T12:50:48.684Z,31.57
2022-08-07T12:53:28.271Z,31.14
2022-08-07T12:56:25.043Z,29.88
2022-08-07T12:58:57.255Z,28.86
2022-08-07T13:01:32.755Z,27.50
2022-08-07T13:04:04.847Z,26.25
2022-08-07T13:06:54.416Z,25.20
2022-08-07T13:10:19.633Z,24.67
2022-08-07T13:12:54.464Z,24.89
2022-08-07T13:15:35.898Z,24.88
2022-08-07T13:18:34.097Z,25.19
2022-08-07T13:21:14.604Z,25.68
2022-08-07T13:24:11.450Z,26.15
2022-08-07T13:26:54.012Z,26.61
2022-08-07T13:29:34.883Z,27.28
2022-08-07T13:32:23.790Z,27.86
2022-08-07T13:35:08.502Z,28.59
2022-08-07T13:38:04.991Z,28.54
2022-08-07T13:40:51.854Z,29.10
2022-08-07T13:43:22.816Z,29.22
2022-08-07T13:46:12.195Z,29.14
2022-08-07T13:49:04.256Z,28.94
2022-08-07T13:52:18.061Z,29.57
2022-08-07T13:54:30.509Z,29.55
2022-08-07T13:57:03.859Z,29.45
2022-08-07T13:59:35.144Z,29.15
2022-08-07T14:02:10.174Z,29.04
2022-08-07T14:05:24.949Z,29.61
2022-08-07T14:08:05.764Z,29.50
2022-08-07T14:10:42.354Z,30.23
2022-08-07T14:13:16.246Z,30.51
2022-08-07T14:15:50.821Z,30.78
2022-08-07T14:18:28.551Z,31.23
2022-08-07T14:21:08.084Z,31.48
2022-08-07T14:24:00.304Z,31.47
2022-08-07T14:26:57.208Z,31.21
2022-08-07T14:30:07.620Z,31.54
2022-08-07T14:32:20.662Z,32.18
2022-08-07T14:34:53.545Z,31.76
2022-08-07T14:37:32.888Z,31.26
2022-08-07T14:40:15.935Z,31.63
2022-08-07T14:43:56.038Z,32.47
2022-08-07T14:45:54.699Z,33.58
2022-08-07T14:48:27.486Z,34.09
2022-08-07T14:50:56.845Z,33.45
2022-08-07T14:54:03.528Z,32.89
2022-08-07T14:56:29.572Z,31.21
2022-08-07T14:59:02.069Z,30.81
2022-08-07T15:01:42.380Z,31.83
2022-08-07T15:04:11.681Z,32.86
2022-08-07T15:06:40.537Z,32.26
2022-08-07T15:12:26.202Z,30.47
2022-08-07T15:15:07.459Z,29.36
2022-08-07T15:17:55.074Z,29.61
2022-08-07T15:20:55.655Z,29.33
2022-08-07T15:23:53.609Z,30.15
2022-08-07T15:26:22.621Z,30.12
2022-08-07T15:34:50.619Z,28.58
2022-08-07T15:38:18.269Z,28.08
2022-08-07T15:40:34.126Z,27.19
2022-08-07T15:43:33.169Z,25.71
2022-08-07T15:46:38.472Z,23.72
2022-08-07T15:49:19.087Z,23.56
2022-08-07T15:54:34.001Z,23.13
2022-08-07T15:57:02.987Z,22.74
2022-08-07T15:59:39.961Z,22.67
2022-08-07T16:02:23.611Z,22.70
2022-08-07T16:04:57.803Z,22.56
2022-08-07T16:08:31.645Z,22.43
2022-08-07T16:10:22.914Z,22.45
2022-08-07T16:13:59.102Z,22.43
2022-08-07T16:16:57.311Z,22.48
2022-08-07T16:19:41.892Z,22.46
2022-08-07T16:22:30.107Z,22.38
2022-08-07T16:25:22.880Z,22.10
2022-08-07T16:28:14.250Z,22.59
2022-08-07T16:31:02.320Z,22.14
2022-08-07T16:34:02.826Z,22.24
2022-08-07T16:37:01.851Z,22.17
2022-08-07T16:39:49.412Z,22.50
2022-08-07T16:42:34.896Z,22.65
2022-08-07T16:46:40.486Z,22.82
2022-08-07T16:48:58.383Z,22.36
2022-08-07T16:52:50.675Z,22.66
2022-08-07T16:55:14.819Z,22.80
2022-08-07T16:58:04.426Z,22.98
2022-08-07T17:00:51.533Z,23.06
2022-08-07T17:03:59.462Z,23.10
2022-08-07T17:06:41.096Z,23.26
2022-08-07T17:10:07.832Z,23.30
2022-08-07T17:13:05.945Z,23.23
2022-08-07T17:16:16.720Z,23.14
2022-08-07T17:18:51.997Z,22.99
2022-08-07T17:21:50.799Z,22.94
2022-08-07T17:24:43.423Z,22.97
2022-08-07T17:27:32.703Z,23.02
2022-08-07T17:30:15.611Z,22.76
2022-08-07T17:33:04.894Z,23.17
2022-08-07T17:35:57.711Z,23.02
2022-08-07T17:38:35.326Z,22.82
2022-08-07T17:42:00.650Z,22.99
2022-08-07T17:44:41.385Z,22.88
2022-08-07T17:47:16.852Z,22.59
2022-08-07T17:49:52.146Z,23.06
2022-08-07T17:52:39.637Z,23.06
2022-08-07T17:55:59.908Z,23.10
2022-08-07T17:58:30.038Z,23.10
2022-08-07T18:00:59.182Z,23.17
2022-08-07T18:03:54.181Z,23.29
2022-08-07T18:06:38.937Z,22.82
2022-08-07T18:09:16.640Z,22.73
2022-08-07T18:12:16.032Z,23.01
2022-08-07T18:14:49.928Z,22.62
2022-08-07T18:18:46.258Z,23.00
2022-08-07T18:21:42.091Z,22.87
2022-08-07T18:24:33.678Z,22.82
2022-08-07T18:27:23.921Z,22.59
2022-08-07T18:30:32.922Z,22.59
2022-08-07T18:33:15.636Z,22.55
2022-08-07T18:36:00.950Z,22.38
2022-08-07T18:38:59.168Z,22.08
2022-08-07T18:42:12.766Z,22.27
2022-08-07T18:45:43.517Z,22.31
2022-08-07T18:47:44.991Z,22.12
2022-08-07T18:50:40.876Z,22.08
2022-08-07T18:53:36.861Z,22.09
2022-08-07T18:56:12.536Z,22.06
2022-08-07T18:59:46.681Z,22.10
2022-08-07T19:02:43.078Z,22.05
2022-08-07T19:06:02.866Z,21.97
2022-08-07T19:08:42.751Z,21.94
2022-08-07T19:11:35.740Z,21.80
2022-08-07T19:14:17.047Z,21.80
2022-08-07T19:17:08.245Z,21.88
2022-08-07T19:20:03.860Z,21.79
2022-08-07T19:22:49.077Z,21.87
2022-08-07T19:26:22.609Z,21.53
2022-08-07T19:28:57.639Z,21.86
2022-08-07T19:31:42.859Z,21.52
2022-08-07T19:33:59.704Z,21.83
2022-08-07T19:36:30.340Z,21.81
2022-08-07T19:39:00.311Z,21.74
2022-08-07T19:41:39.104Z,21.82
2022-08-07T19:44:21.299Z,21.77
2022-08-07T19:46:55.770Z,21.57
2022-08-07T19:49:56.475Z,21.55
2022-08-07T19:52:18.420Z,21.55
2022-08-07T19:54:55.738Z,21.26
2022-08-07T19:58:00.655Z,21.53
2022-08-07T20:00:21.824Z,21.37
2022-08-07T20:03:00.963Z,19.45
2022-08-07T20:05:59.704Z,21.43
2022-08-07T20:08:24.987Z,21.28
2022-08-07T20:11:02.177Z,21.37
2022-08-07T20:13:46.691Z,21.23
2022-08-07T20:16:35.073Z,20.77
2022-08-07T20:19:10.178Z,20.89
2022-08-07T20:21:41.679Z,21.02
2022-08-07T20:24:28.547Z,20.90
2022-08-07T20:26:58.974Z,20.80
2022-08-07T20:29:48.274Z,20.85
2022-08-07T20:32:39.828Z,20.93
2022-08-07T20:35:26.522Z,20.87
2022-08-07T20:37:59.610Z,20.82
2022-08-07T20:40:32.165Z,20.72
2022-08-07T20:43:02.227Z,20.65
2022-08-07T20:46:26.720Z,20.59
2022-08-07T20:48:25.890Z,20.50
2022-08-07T20:50:58.627Z,20.25
2022-08-07T20:53:25.919Z,20.04
2022-08-07T20:56:16.064Z,19.89
2022-08-07T20:58:48.140Z,20.41
2022-08-07T21:01:22.015Z,20.25
2022-08-07T21:04:18.547Z,20.22
2022-08-07T21:06:53.181Z,19.57
2022-08-07T21:09:24.245Z,20.30
2022-08-07T21:11:57.230Z,20.40
2022-08-07T21:14:33.782Z,20.34
2022-08-07T21:18:03.203Z,20.20
2022-08-07T21:20:04.468Z,20.31
2022-08-07T21:22:39.595Z,20.28
2022-08-07T21:25:29.028Z,20.20
2022-08-07T21:28:48.429Z,20.12
2022-08-07T21:31:31.357Z,19.73
2022-08-07T21:34:16.458Z,19.81
2022-08-07T21:36:53.034Z,19.93
2022-08-07T21:39:57.950Z,19.98
2022-08-07T21:42:46.654Z,19.60
2022-08-07T21:46:04.906Z,19.83
2022-08-07T21:48:27.682Z,19.84
2022-08-07T21:51:12.466Z,19.82
2022-08-07T21:53:52.681Z,19.79
2022-08-07T21:56:47.786Z,19.76
2022-08-07T22:00:03.518Z,19.70
2022-08-07T22:02:37.531Z,19.55
2022-08-07T22:05:21.678Z,19.19
2022-08-07T22:07:58.317Z,19.57
2022-08-07T22:10:33.676Z,19.17
2022-08-07T22:13:05.964Z,19.49
2022-08-07T22:16:44.595Z,19.44
2022-08-07T22:18:38.810Z,19.41
2022-08-07T22:21:20.347Z,18.91
2022-08-07T22:24:10.486Z,19.34
2022-08-07T22:26:45.132Z,19.30
2022-08-07T22:29:33.703Z,19.23
2022-08-07T22:32:20.476Z,19.29
2022-08-07T22:34:55.498Z,19.34
2022-08-07T22:37:22.560Z,19.26
2022-08-07T22:39:57.223Z,19.25
2022-08-07T22:42:29.345Z,19.17
2022-08-07T22:46:21.902Z,19.18
2022-08-07T22:48:55.037Z,19.09
2022-08-07T22:51:36.415Z,18.90
2022-08-07T22:54:31.515Z,18.90
2022-08-07T22:57:19.040Z,18.85
2022-08-07T23:00:02.984Z,18.91
2022-08-07T23:03:09.297Z,18.93
2022-08-07T23:06:07.267Z,18.94
2022-08-07T23:10:05.050Z,18.87
2022-08-07T23:12:21.039Z,18.78
2022-08-07T23:16:05.363Z,18.24
2022-08-07T23:18:21.816Z,18.89
2022-08-07T23:21:16.279Z,18.93
2022-08-07T23:24:11.467Z,18.98
2022-08-07T23:27:07.768Z,18.92
2022-08-07T23:30:37.429Z,18.90
2022-08-07T23:34:22.628Z,18.96
2022-08-07T23:36:17.382Z,18.91
2022-08-07T23:39:09.539Z,18.79
2022-08-07T23:41:47.868Z,18.76
2022-08-07T23:44:45.032Z,18.72
2022-08-07T23:47:26.919Z,18.57
2022-08-07T23:50:11.874Z,18.51
2022-08-07T23:53:05.446Z,18.57
2022-08-07T23:55:52.487Z,18.51
2022-08-07T23:58:59.444Z,18.58
